PWSweather.com
Personal Weather Stations
Station Observations
PRATO
PratoIT 59100

PratoIT 59100

Lat: 43.8956799, Lon: 11.0845155

Elevation: 164

Station Type: Davis Vantage Vue

http://www.meteoprato.it

High Low Average
Temperature 34.8°F1.6°C 29.8°F-1.2°C 31.9°F-0.1°C
Dew Point 31.0°F-0.6°C 22.4°F-5.3°C 27.2°F-2.7°C
Winds 19.1 mph 30.7 kmh 3.0 mph 4.8 kmh 11.0 mph NE17.7 kmh NE
Wind Gusts 33.0 mph53.1 kmh 5.0 mph8.0 kmh 20.0 mph32.2 kmh
Humidity 89% 69% 82%
Pressure 29.98 in1015.2 mb 29.56 in1001.0 mb -
Precipitation 0.13 in3.3 mm - -
Hour Temp Dew Point Humidity Winds Wind Gusts Pressure Precip Precip Rate Daily Precip Total
12:00 AM 30.9°F-0.6°C 23.6°F-4.7°C 74% 10.7 mph NE17.2 kmh NE 24.0 mph38.6 kmh 29.98 in1015.2 mb 0.00 in0.0 mm 0.00 in0.0 mm 0.00 in0.0 mm
12:05 AM 31.0°F-0.6°C 23.4°F-4.8°C 73% 11.9 mph NE19.2 kmh NE 23.0 mph37.0 kmh 29.98 in1015.2 mb 0.00 in0.0 mm 0.00 in0.0 mm 0.00 in0.0 mm
12:10 AM 31.1°F-0.5°C 23.1°F-4.9°C 72% 11.8 mph NE19.0 kmh NE 23.0 mph37.0 kmh 29.98 in1015.2 mb 0.00 in0.0 mm 0.00 in0.0 mm 0.00 in0.0 mm
12:15 AM 31.2°F-0.4°C 23.2°F-4.9°C 72% 11.7 mph NE18.8 kmh NE 18.0 mph29.0 kmh 29.98 in1015.2 mb 0.00 in0.0 mm 0.00 in0.0 mm 0.00 in0.0 mm
12:20 AM 31.2°F-0.4°C 22.9°F-5.1°C 71% 11.3 mph NE18.2 kmh NE 18.0 mph29.0 kmh 29.97 in1014.9 mb 0.00 in0.0 mm 0.00 in0.0 mm 0.00 in0.0 mm
12:25 AM 31.3°F-0.4°C 22.6°F-5.2°C 70% 10.2 mph NE16.4 kmh NE 19.0 mph30.6 kmh 29.98 in1015.2 mb 0.00 in0.0 mm 0.00 in0.0 mm 0.00 in0.0 mm
12:30 AM 31.4°F-0.3°C 22.7°F-5.2°C 70% 9.8 mph NE15.8 kmh NE 19.0 mph30.6 kmh 29.98 in1015.2 mb 0.00 in0.0 mm 0.00 in0.0 mm 0.00 in0.0 mm
12:35 AM 31.4°F-0.3°C 22.4°F-5.3°C 69% 9.9 mph NE15.9 kmh NE 19.0 mph30.6 kmh 29.98 in1015.2 mb 0.00 in0.0 mm 0.00 in0.0 mm 0.00 in0.0 mm
12:40 AM 31.5°F-0.3°C 22.5°F-5.3°C 69% 10.1 mph NE16.3 kmh NE 20.0 mph32.2 kmh 29.98 in1015.2 mb 0.00 in0.0 mm 0.00 in0.0 mm 0.00 in0.0 mm
12:45 AM 31.5°F-0.3°C 22.1°F-5.5°C 68% 10.7 mph NE17.2 kmh NE 20.0 mph32.2 kmh 29.98 in1015.2 mb 0.00 in0.0 mm 0.00 in0.0 mm 0.00 in0.0 mm
12:50 AM 31.4°F-0.3°C 22.4°F-5.3°C 69% 10.3 mph NE16.6 kmh NE 18.0 mph29.0 kmh 29.98 in1015.2 mb 0.00 in0.0 mm 0.00 in0.0 mm 0.00 in0.0 mm
12:55 AM 31.4°F-0.3°C 22.4°F-5.3°C 69% 9.4 mph NE15.1 kmh NE 17.0 mph27.4 kmh 29.98 in1015.2 mb 0.00 in0.0 mm 0.00 in0.0 mm 0.00 in0.0 mm
01:00 AM 31.4°F-0.3°C 22.4°F-5.3°C 69% 9.0 mph NE14.5 kmh NE 17.0 mph27.4 kmh 29.98 in1015.2 mb 0.00 in0.0 mm 0.00 in0.0 mm 0.00 in0.0 mm
01:05 AM 31.4°F-0.3°C 22.4°F-5.3°C 69% 8.7 mph NE14.0 kmh NE 21.0 mph33.8 kmh 29.98 in1015.2 mb 0.00 in0.0 mm 0.00 in0.0 mm 0.00 in0.0 mm
01:10 AM 31.5°F-0.3°C 22.5°F-5.3°C 69% 8.2 mph NE13.2 kmh NE 21.0 mph33.8 kmh 29.98 in1015.2 mb 0.00 in0.0 mm 0.00 in0.0 mm 0.00 in0.0 mm
01:15 AM 31.4°F-0.3°C 22.7°F-5.2°C 70% 8.5 mph NE13.7 kmh NE 19.0 mph30.6 kmh 29.98 in1015.2 mb 0.00 in0.0 mm 0.00 in0.0 mm 0.00 in0.0 mm
01:20 AM 31.2°F-0.4°C 22.9°F-5.1°C 71% 9.4 mph NE15.1 kmh NE 18.0 mph29.0 kmh 29.98 in1015.2 mb 0.00 in0.0 mm 0.00 in0.0 mm 0.00 in0.0 mm
01:25 AM 31.0°F-0.6°C 23.0°F-5.0°C 72% 9.6 mph NE15.4 kmh NE 18.0 mph29.0 kmh 29.98 in1015.2 mb 0.00 in0.0 mm 0.00 in0.0 mm 0.00 in0.0 mm
01:30 AM 30.8°F-0.7°C 23.5°F-4.7°C 74% 8.5 mph NE13.7 kmh NE 16.0 mph25.7 kmh 29.98 in1015.2 mb 0.00 in0.0 mm 0.00 in0.0 mm 0.00 in0.0 mm
01:35 AM 30.5°F-0.8°C 23.8°F-4.6°C 76% 7.6 mph NE12.2 kmh NE 15.0 mph24.1 kmh 29.98 in1015.2 mb 0.00 in0.0 mm 0.00 in0.0 mm 0.00 in0.0 mm
01:40 AM 30.4°F-0.9°C 24.1°F-4.4°C 77% 7.9 mph NE12.7 kmh NE 17.0 mph27.4 kmh 29.98 in1015.2 mb 0.00 in0.0 mm 0.00 in0.0 mm 0.00 in0.0 mm
01:45 AM 30.3°F-0.9°C 24.3°F-4.3°C 78% 8.6 mph NE13.8 kmh NE 18.0 mph29.0 kmh 29.98 in1015.2 mb 0.00 in0.0 mm 0.00 in0.0 mm 0.00 in0.0 mm
01:50 AM 30.1°F-1.1°C 24.4°F-4.2°C 79% 9.1 mph NE14.6 kmh NE 19.0 mph30.6 kmh 29.98 in1015.2 mb 0.00 in0.0 mm 0.00 in0.0 mm 0.00 in0.0 mm
01:55 AM 30.0°F-1.1°C 24.6°F-4.1°C 80% 9.1 mph NE14.6 kmh NE 19.0 mph30.6 kmh 29.97 in1014.9 mb 0.00 in0.0 mm 0.00 in0.0 mm 0.00 in0.0 mm
02:00 AM 30.0°F-1.1°C 24.6°F-4.1°C 80% 8.7 mph NE14.0 kmh NE 16.0 mph25.7 kmh 29.97 in1014.9 mb 0.00 in0.0 mm 0.00 in0.0 mm 0.00 in0.0 mm
02:05 AM 30.0°F-1.1°C 24.3°F-4.3°C 79% 8.4 mph NE13.5 kmh NE 18.0 mph29.0 kmh 29.97 in1014.9 mb 0.00 in0.0 mm 0.00 in0.0 mm 0.00 in0.0 mm
02:10 AM 30.1°F-1.1°C 24.4°F-4.2°C 79% 8.7 mph NE14.0 kmh NE 18.0 mph29.0 kmh 29.97 in1014.9 mb 0.00 in0.0 mm 0.00 in0.0 mm 0.00 in0.0 mm
02:15 AM 30.1°F-1.1°C 24.4°F-4.2°C 79% 8.3 mph NE13.4 kmh NE 14.0 mph22.5 kmh 29.96 in1014.6 mb 0.00 in0.0 mm 0.00 in0.0 mm 0.00 in0.0 mm
02:20 AM 30.2°F-1.0°C 24.5°F-4.2°C 79% 7.5 mph NE12.1 kmh NE 16.0 mph25.7 kmh 29.96 in1014.6 mb 0.00 in0.0 mm 0.00 in0.0 mm 0.00 in0.0 mm
02:25 AM 30.2°F-1.0°C 24.5°F-4.2°C 79% 7.9 mph NE12.7 kmh NE 16.0 mph25.7 kmh 29.96 in1014.6 mb 0.00 in0.0 mm 0.00 in0.0 mm 0.00 in0.0 mm
02:30 AM 30.1°F-1.1°C 24.7°F-4.1°C 80% 9.0 mph NE14.5 kmh NE 21.0 mph33.8 kmh 29.95 in1014.2 mb 0.00 in0.0 mm 0.00 in0.0 mm 0.00 in0.0 mm
02:35 AM 30.1°F-1.1°C 24.7°F-4.1°C 80% 9.4 mph NE15.1 kmh NE 21.0 mph33.8 kmh 29.95 in1014.2 mb 0.00 in0.0 mm 0.00 in0.0 mm 0.00 in0.0 mm
02:40 AM 30.3°F-0.9°C 24.6°F-4.1°C 79% 9.3 mph NE15.0 kmh NE 19.0 mph30.6 kmh 29.95 in1014.2 mb 0.00 in0.0 mm 0.00 in0.0 mm 0.00 in0.0 mm
02:45 AM 30.5°F-0.8°C 24.5°F-4.2°C 78% 9.3 mph NE15.0 kmh NE 17.0 mph27.4 kmh 29.95 in1014.2 mb 0.00 in0.0 mm 0.00 in0.0 mm 0.00 in0.0 mm
02:50 AM 30.6°F-0.8°C 24.6°F-4.1°C 78% 9.3 mph NE15.0 kmh NE 20.0 mph32.2 kmh 29.95 in1014.2 mb 0.00 in0.0 mm 0.00 in0.0 mm 0.00 in0.0 mm
02:55 AM 30.6°F-0.8°C 24.6°F-4.1°C 78% 10.0 mph NE16.1 kmh NE 20.0 mph32.2 kmh 29.94 in1013.9 mb 0.00 in0.0 mm 0.00 in0.0 mm 0.00 in0.0 mm
03:00 AM 30.6°F-0.8°C 24.9°F-3.9°C 79% 10.5 mph NE16.9 kmh NE 20.0 mph32.2 kmh 29.95 in1014.2 mb 0.00 in0.0 mm 0.00 in0.0 mm 0.00 in0.0 mm
03:05 AM 30.4°F-0.9°C 25.0°F-3.9°C 80% 10.6 mph NE17.1 kmh NE 18.0 mph29.0 kmh 29.94 in1013.9 mb 0.00 in0.0 mm 0.00 in0.0 mm 0.00 in0.0 mm
03:10 AM 30.1°F-1.1°C 25.0°F-3.9°C 81% 10.7 mph NE17.2 kmh NE 20.0 mph32.2 kmh 29.94 in1013.9 mb 0.00 in0.0 mm 0.00 in0.0 mm 0.00 in0.0 mm
03:15 AM 29.9°F-1.2°C 25.1°F-3.8°C 82% 11.0 mph NE17.7 kmh NE 21.0 mph33.8 kmh 29.93 in1013.5 mb 0.00 in0.0 mm 0.00 in0.0 mm 0.00 in0.0 mm
03:20 AM 29.8°F-1.2°C 25.3°F-3.7°C 83% 11.1 mph NE17.9 kmh NE 21.0 mph33.8 kmh 29.93 in1013.5 mb 0.00 in0.0 mm 0.00 in0.0 mm 0.00 in0.0 mm
03:25 AM 29.8°F-1.2°C 25.0°F-3.9°C 82% 10.9 mph NE17.5 kmh NE 21.0 mph33.8 kmh 29.93 in1013.5 mb 0.00 in0.0 mm 0.00 in0.0 mm 0.00 in0.0 mm
03:30 AM 29.8°F-1.2°C 25.0°F-3.9°C 82% 11.3 mph NE18.2 kmh NE 22.0 mph35.4 kmh 29.93 in1013.5 mb 0.00 in0.0 mm 0.00 in0.0 mm 0.00 in0.0 mm
03:35 AM 29.8°F-1.2°C 25.0°F-3.9°C 82% 12.4 mph NE20.0 kmh NE 22.0 mph35.4 kmh 29.93 in1013.5 mb 0.00 in0.0 mm 0.00 in0.0 mm 0.00 in0.0 mm
03:40 AM 29.8°F-1.2°C 25.0°F-3.9°C 82% 12.8 mph NE20.6 kmh NE 23.0 mph37.0 kmh 29.93 in1013.5 mb 0.00 in0.0 mm 0.00 in0.0 mm 0.00 in0.0 mm
03:45 AM 29.8°F-1.2°C 25.0°F-3.9°C 82% 12.7 mph NE20.4 kmh NE 23.0 mph37.0 kmh 29.93 in1013.5 mb 0.00 in0.0 mm 0.00 in0.0 mm 0.00 in0.0 mm
03:50 AM 29.8°F-1.2°C 25.3°F-3.7°C 83% 12.1 mph NE19.5 kmh NE 19.0 mph30.6 kmh 29.93 in1013.5 mb 0.00 in0.0 mm 0.00 in0.0 mm 0.00 in0.0 mm
03:55 AM 30.0°F-1.1°C 25.2°F-3.8°C 82% 10.7 mph NE17.2 kmh NE 23.0 mph37.0 kmh 29.92 in1013.2 mb 0.00 in0.0 mm 0.00 in0.0 mm 0.00 in0.0 mm
04:00 AM 30.0°F-1.1°C 25.2°F-3.8°C 82% 10.4 mph NE16.7 kmh NE 26.0 mph41.8 kmh 29.92 in1013.2 mb 0.00 in0.0 mm 0.00 in0.0 mm 0.00 in0.0 mm
04:05 AM 30.0°F-1.1°C 25.2°F-3.8°C 82% 11.4 mph NE18.3 kmh NE 26.0 mph41.8 kmh 29.91 in1012.9 mb 0.00 in0.0 mm 0.00 in0.0 mm 0.00 in0.0 mm
04:10 AM 30.0°F-1.1°C 25.2°F-3.8°C 82% 12.0 mph NE19.3 kmh NE 23.0 mph37.0 kmh 29.91 in1012.9 mb 0.00 in0.0 mm 0.00 in0.0 mm 0.00 in0.0 mm
04:15 AM 29.9°F-1.2°C 25.4°F-3.7°C 83% 12.2 mph NE19.6 kmh NE 23.0 mph37.0 kmh 29.91 in1012.9 mb 0.00 in0.0 mm 0.00 in0.0 mm 0.00 in0.0 mm
04:20 AM 30.0°F-1.1°C 25.5°F-3.6°C 83% 12.2 mph NE19.6 kmh NE 29.0 mph46.7 kmh 29.91 in1012.9 mb 0.00 in0.0 mm 0.00 in0.0 mm 0.00 in0.0 mm
04:25 AM 30.1°F-1.1°C 25.3°F-3.7°C 82% 12.0 mph NE19.3 kmh NE 29.0 mph46.7 kmh 29.90 in1012.5 mb 0.00 in0.0 mm 0.00 in0.0 mm 0.00 in0.0 mm
04:30 AM 30.2°F-1.0°C 25.1°F-3.8°C 81% 12.3 mph NE19.8 kmh NE 25.0 mph40.2 kmh 29.90 in1012.5 mb 0.00 in0.0 mm 0.00 in0.0 mm 0.00 in0.0 mm
04:35 AM 30.2°F-1.0°C 25.4°F-3.7°C 82% 13.1 mph NE21.1 kmh NE 26.0 mph41.8 kmh 29.90 in1012.5 mb 0.00 in0.0 mm 0.00 in0.0 mm 0.00 in0.0 mm
04:40 AM 30.1°F-1.1°C 25.3°F-3.7°C 82% 13.5 mph NE21.7 kmh NE 26.0 mph41.8 kmh 29.90 in1012.5 mb 0.00 in0.0 mm 0.00 in0.0 mm 0.00 in0.0 mm
04:45 AM 30.1°F-1.1°C 25.3°F-3.7°C 82% 12.8 mph NE20.6 kmh NE 21.0 mph33.8 kmh 29.89 in1012.2 mb 0.00 in0.0 mm 0.00 in0.0 mm 0.00 in0.0 mm
04:50 AM 30.2°F-1.0°C 25.1°F-3.8°C 81% 11.5 mph NE18.5 kmh NE 19.0 mph30.6 kmh 29.89 in1012.2 mb 0.00 in0.0 mm 0.00 in0.0 mm 0.00 in0.0 mm
04:55 AM 30.3°F-0.9°C 25.2°F-3.8°C 81% 11.1 mph NE17.9 kmh NE 24.0 mph38.6 kmh 29.88 in1011.9 mb 0.00 in0.0 mm 0.00 in0.0 mm 0.00 in0.0 mm
05:00 AM 30.4°F-0.9°C 25.3°F-3.7°C 81% 11.3 mph NE18.2 kmh NE 24.0 mph38.6 kmh 29.88 in1011.9 mb 0.00 in0.0 mm 0.00 in0.0 mm 0.00 in0.0 mm
05:05 AM 30.4°F-0.9°C 25.3°F-3.7°C 81% 12.0 mph NE19.3 kmh NE 22.0 mph35.4 kmh 29.88 in1011.9 mb 0.00 in0.0 mm 0.00 in0.0 mm 0.00 in0.0 mm
05:10 AM 30.4°F-0.9°C 25.3°F-3.7°C 81% 12.6 mph NE20.3 kmh NE 20.0 mph32.2 kmh 29.88 in1011.9 mb 0.00 in0.0 mm 0.00 in0.0 mm 0.00 in0.0 mm
05:15 AM 30.4°F-0.9°C 25.3°F-3.7°C 81% 12.3 mph NE19.8 kmh NE 20.0 mph32.2 kmh 29.88 in1011.9 mb 0.00 in0.0 mm 0.00 in0.0 mm 0.00 in0.0 mm
05:20 AM 30.4°F-0.9°C 25.3°F-3.7°C 81% 11.9 mph NE19.2 kmh NE 20.0 mph32.2 kmh 29.87 in1011.5 mb 0.00 in0.0 mm 0.00 in0.0 mm 0.00 in0.0 mm
05:25 AM 30.4°F-0.9°C 25.6°F-3.6°C 82% 11.9 mph NE19.2 kmh NE 21.0 mph33.8 kmh 29.87 in1011.5 mb 0.00 in0.0 mm 0.00 in0.0 mm 0.00 in0.0 mm
05:30 AM 30.3°F-0.9°C 25.5°F-3.6°C 82% 12.4 mph NE20.0 kmh NE 22.0 mph35.4 kmh 29.87 in1011.5 mb 0.00 in0.0 mm 0.00 in0.0 mm 0.00 in0.0 mm
05:35 AM 30.4°F-0.9°C 25.6°F-3.6°C 82% 13.1 mph NE21.1 kmh NE 24.0 mph38.6 kmh 29.87 in1011.5 mb 0.00 in0.0 mm 0.00 in0.0 mm 0.00 in0.0 mm
05:40 AM 30.5°F-0.8°C 25.4°F-3.7°C 81% 13.2 mph NE21.2 kmh NE 24.0 mph38.6 kmh 29.87 in1011.5 mb 0.00 in0.0 mm 0.00 in0.0 mm 0.00 in0.0 mm
05:45 AM 30.5°F-0.8°C 25.4°F-3.7°C 81% 12.9 mph NE20.8 kmh NE 27.0 mph43.5 kmh 29.86 in1011.2 mb 0.00 in0.0 mm 0.00 in0.0 mm 0.00 in0.0 mm
05:50 AM 30.6°F-0.8°C 25.5°F-3.6°C 81% 12.7 mph NE20.4 kmh NE 27.0 mph43.5 kmh 29.87 in1011.5 mb 0.00 in0.0 mm 0.00 in0.0 mm 0.00 in0.0 mm
05:55 AM 30.6°F-0.8°C 25.5°F-3.6°C 81% 12.8 mph NE20.6 kmh NE 26.0 mph41.8 kmh 29.86 in1011.2 mb 0.00 in0.0 mm 0.00 in0.0 mm 0.00 in0.0 mm
06:00 AM 30.6°F-0.8°C 25.5°F-3.6°C 81% 12.9 mph NE20.8 kmh NE 23.0 mph37.0 kmh 29.86 in1011.2 mb 0.00 in0.0 mm 0.00 in0.0 mm 0.00 in0.0 mm
06:05 AM 30.6°F-0.8°C 25.5°F-3.6°C 81% 12.4 mph NE20.0 kmh NE 23.0 mph37.0 kmh 29.86 in1011.2 mb 0.00 in0.0 mm 0.00 in0.0 mm 0.00 in0.0 mm
06:10 AM 30.5°F-0.8°C 25.4°F-3.7°C 81% 11.6 mph NE18.7 kmh NE 22.0 mph35.4 kmh 29.85 in1010.8 mb 0.00 in0.0 mm 0.00 in0.0 mm 0.00 in0.0 mm
06:15 AM 30.6°F-0.8°C 25.5°F-3.6°C 81% 11.0 mph NE17.7 kmh NE 19.0 mph30.6 kmh 29.85 in1010.8 mb 0.00 in0.0 mm 0.00 in0.0 mm 0.00 in0.0 mm
06:20 AM 30.7°F-0.7°C 25.3°F-3.7°C 80% 11.2 mph NE18.0 kmh NE 23.0 mph37.0 kmh 29.85 in1010.8 mb 0.00 in0.0 mm 0.00 in0.0 mm 0.00 in0.0 mm
06:25 AM 30.7°F-0.7°C 25.6°F-3.6°C 81% 11.4 mph NE18.3 kmh NE 23.0 mph37.0 kmh 29.85 in1010.8 mb 0.00 in0.0 mm 0.00 in0.0 mm 0.00 in0.0 mm
06:30 AM 30.7°F-0.7°C 25.6°F-3.6°C 81% 10.2 mph NE16.4 kmh NE 23.0 mph37.0 kmh 29.85 in1010.8 mb 0.00 in0.0 mm 0.00 in0.0 mm 0.00 in0.0 mm
06:35 AM 30.8°F-0.7°C 25.7°F-3.5°C 81% 9.0 mph NE14.5 kmh NE 18.0 mph29.0 kmh 29.85 in1010.8 mb 0.00 in0.0 mm 0.00 in0.0 mm 0.00 in0.0 mm
06:40 AM 30.9°F-0.6°C 25.5°F-3.6°C 80% 8.9 mph NE14.3 kmh NE 20.0 mph32.2 kmh 29.84 in1010.5 mb 0.00 in0.0 mm 0.00 in0.0 mm 0.00 in0.0 mm
06:45 AM 31.0°F-0.6°C 25.2°F-3.8°C 79% 9.0 mph NE14.5 kmh NE 21.0 mph33.8 kmh 29.84 in1010.5 mb 0.00 in0.0 mm 0.00 in0.0 mm 0.00 in0.0 mm
06:50 AM 30.9°F-0.6°C 25.5°F-3.6°C 80% 9.5 mph NE15.3 kmh NE 21.0 mph33.8 kmh 29.84 in1010.5 mb 0.00 in0.0 mm 0.00 in0.0 mm 0.00 in0.0 mm
06:55 AM 30.8°F-0.7°C 25.4°F-3.7°C 80% 10.6 mph NE17.1 kmh NE 23.0 mph37.0 kmh 29.84 in1010.5 mb 0.00 in0.0 mm 0.00 in0.0 mm 0.00 in0.0 mm
07:00 AM 30.8°F-0.7°C 25.7°F-3.5°C 81% 11.1 mph NE17.9 kmh NE 23.0 mph37.0 kmh 29.83 in1010.2 mb 0.00 in0.0 mm 0.00 in0.0 mm 0.00 in0.0 mm
07:05 AM 30.9°F-0.6°C 25.8°F-3.4°C 81% 11.2 mph NE18.0 kmh NE 26.0 mph41.8 kmh 29.83 in1010.2 mb 0.00 in0.0 mm 0.00 in0.0 mm 0.00 in0.0 mm
07:10 AM 30.9°F-0.6°C 25.8°F-3.4°C 81% 11.8 mph NE19.0 kmh NE 26.0 mph41.8 kmh 29.83 in1010.2 mb 0.00 in0.0 mm 0.00 in0.0 mm 0.00 in0.0 mm
07:15 AM 31.0°F-0.6°C 25.6°F-3.6°C 80% 12.3 mph NE19.8 kmh NE 27.0 mph43.5 kmh 29.82 in1009.8 mb 0.00 in0.0 mm 0.00 in0.0 mm 0.00 in0.0 mm
07:20 AM 31.1°F-0.5°C 25.7°F-3.5°C 80% 12.7 mph NE20.4 kmh NE 29.0 mph46.7 kmh 29.82 in1009.8 mb 0.00 in0.0 mm 0.00 in0.0 mm 0.00 in0.0 mm
07:25 AM 31.3°F-0.4°C 25.8°F-3.4°C 80% 14.4 mph NE23.2 kmh NE 33.0 mph53.1 kmh 29.82 in1009.8 mb 0.00 in0.0 mm 0.00 in0.0 mm 0.00 in0.0 mm
07:30 AM 31.4°F-0.3°C 25.6°F-3.6°C 79% 16.1 mph NE25.9 kmh NE 33.0 mph53.1 kmh 29.82 in1009.8 mb 0.00 in0.0 mm 0.00 in0.0 mm 0.00 in0.0 mm
07:35 AM 31.6°F-0.2°C 25.5°F-3.6°C 78% 16.7 mph NE26.9 kmh NE 28.0 mph45.1 kmh 29.82 in1009.8 mb 0.00 in0.0 mm 0.00 in0.0 mm 0.00 in0.0 mm
07:40 AM 31.6°F-0.2°C 25.8°F-3.4°C 79% 16.9 mph NE27.2 kmh NE 30.0 mph48.3 kmh 29.82 in1009.8 mb 0.00 in0.0 mm 0.00 in0.0 mm 0.00 in0.0 mm
07:45 AM 31.4°F-0.3°C 25.9°F-3.4°C 80% 17.2 mph NE27.7 kmh NE 30.0 mph48.3 kmh 29.82 in1009.8 mb 0.00 in0.0 mm 0.00 in0.0 mm 0.00 in0.0 mm
07:50 AM 31.2°F-0.4°C 26.0°F-3.3°C 81% 17.2 mph NE27.7 kmh NE 31.0 mph49.9 kmh 29.82 in1009.8 mb 0.00 in0.0 mm 0.00 in0.0 mm 0.00 in0.0 mm
07:55 AM 30.9°F-0.6°C 26.3°F-3.2°C 83% 16.2 mph NE26.1 kmh NE 31.0 mph49.9 kmh 29.81 in1009.5 mb 0.00 in0.0 mm 0.00 in0.0 mm 0.00 in0.0 mm
08:00 AM 30.7°F-0.7°C 26.4°F-3.1°C 84% 15.0 mph NE24.1 kmh NE 29.0 mph46.7 kmh 29.81 in1009.5 mb 0.00 in0.0 mm 0.00 in0.0 mm 0.00 in0.0 mm
08:05 AM 30.7°F-0.7°C 26.4°F-3.1°C 84% 15.4 mph NE24.8 kmh NE 32.0 mph51.5 kmh 29.82 in1009.8 mb 0.00 in0.0 mm 0.00 in0.0 mm 0.00 in0.0 mm
08:10 AM 30.9°F-0.6°C 26.3°F-3.2°C 83% 17.6 mph NE28.3 kmh NE 32.0 mph51.5 kmh 29.82 in1009.8 mb 0.00 in0.0 mm 0.00 in0.0 mm 0.00 in0.0 mm
08:15 AM 31.1°F-0.5°C 26.2°F-3.2°C 82% 19.1 mph NE30.7 kmh NE 30.0 mph48.3 kmh 29.82 in1009.8 mb 0.00 in0.0 mm 0.00 in0.0 mm 0.00 in0.0 mm
08:20 AM 31.3°F-0.4°C 26.1°F-3.3°C 81% 18.5 mph NE29.8 kmh NE 29.0 mph46.7 kmh 29.82 in1009.8 mb 0.00 in0.0 mm 0.00 in0.0 mm 0.00 in0.0 mm
08:25 AM 31.2°F-0.4°C 26.3°F-3.2°C 82% 16.9 mph NE27.2 kmh NE 29.0 mph46.7 kmh 29.82 in1009.8 mb 0.00 in0.0 mm 0.00 in0.0 mm 0.00 in0.0 mm
08:30 AM 31.3°F-0.4°C 26.4°F-3.1°C 82% 14.9 mph NE24.0 kmh NE 27.0 mph43.5 kmh 29.82 in1009.8 mb 0.00 in0.0 mm 0.00 in0.0 mm 0.00 in0.0 mm
08:35 AM 31.2°F-0.4°C 26.3°F-3.2°C 82% 13.6 mph NE21.9 kmh NE 25.0 mph40.2 kmh 29.82 in1009.8 mb 0.00 in0.0 mm 0.00 in0.0 mm 0.00 in0.0 mm
08:40 AM 31.1°F-0.5°C 26.5°F-3.1°C 83% 14.1 mph NE22.7 kmh NE 27.0 mph43.5 kmh 29.82 in1009.8 mb 0.00 in0.0 mm 0.00 in0.0 mm 0.00 in0.0 mm
08:45 AM 31.0°F-0.6°C 26.4°F-3.1°C 83% 15.3 mph NE24.6 kmh NE 31.0 mph49.9 kmh 29.82 in1009.8 mb 0.00 in0.0 mm 0.00 in0.0 mm 0.00 in0.0 mm
08:50 AM 31.0°F-0.6°C 26.7°F-2.9°C 84% 16.9 mph NE27.2 kmh NE 31.0 mph49.9 kmh 29.82 in1009.8 mb 0.00 in0.0 mm 0.00 in0.0 mm 0.00 in0.0 mm
08:55 AM 31.0°F-0.6°C 26.7°F-2.9°C 84% 17.6 mph NE28.3 kmh NE 29.0 mph46.7 kmh 29.82 in1009.8 mb 0.00 in0.0 mm 0.00 in0.0 mm 0.00 in0.0 mm
09:00 AM 31.1°F-0.5°C 26.8°F-2.9°C 84% 16.6 mph NE26.7 kmh NE 28.0 mph45.1 kmh 29.82 in1009.8 mb 0.00 in0.0 mm 0.00 in0.0 mm 0.00 in0.0 mm
09:05 AM 31.1°F-0.5°C 26.8°F-2.9°C 84% 15.8 mph NE25.4 kmh NE 33.0 mph53.1 kmh 29.82 in1009.8 mb 0.00 in0.0 mm 0.00 in0.0 mm 0.00 in0.0 mm
09:10 AM 31.0°F-0.6°C 27.0°F-2.8°C 85% 15.8 mph NE25.4 kmh NE 33.0 mph53.1 kmh 29.81 in1009.5 mb 0.00 in0.0 mm 0.00 in0.0 mm 0.00 in0.0 mm
09:15 AM 30.8°F-0.7°C 27.1°F-2.7°C 86% 15.5 mph NE24.9 kmh NE 27.0 mph43.5 kmh 29.82 in1009.8 mb 0.00 in0.0 mm 0.00 in0.0 mm 0.00 in0.0 mm
09:20 AM 30.7°F-0.7°C 27.3°F-2.6°C 87% 14.6 mph NE23.5 kmh NE 27.0 mph43.5 kmh 29.81 in1009.5 mb 0.00 in0.0 mm 0.00 in0.0 mm 0.00 in0.0 mm
09:25 AM 30.6°F-0.8°C 27.2°F-2.7°C 87% 13.7 mph NE22.0 kmh NE 23.0 mph37.0 kmh 29.80 in1009.1 mb 0.00 in0.0 mm 0.00 in0.0 mm 0.00 in0.0 mm
09:30 AM 30.7°F-0.7°C 27.3°F-2.6°C 87% 13.2 mph NE21.2 kmh NE 24.0 mph38.6 kmh 29.80 in1009.1 mb 0.00 in0.0 mm 0.00 in0.0 mm 0.00 in0.0 mm
09:35 AM 30.9°F-0.6°C 26.9°F-2.8°C 85% 13.2 mph NE21.2 kmh NE 28.0 mph45.1 kmh 29.79 in1008.8 mb 0.00 in0.0 mm 0.00 in0.0 mm 0.00 in0.0 mm
09:40 AM 31.0°F-0.6°C 27.0°F-2.8°C 85% 13.9 mph NE22.4 kmh NE 30.0 mph48.3 kmh 29.80 in1009.1 mb 0.00 in0.0 mm 0.00 in0.0 mm 0.00 in0.0 mm
09:45 AM 31.1°F-0.5°C 26.8°F-2.9°C 84% 14.2 mph NE22.9 kmh NE 30.0 mph48.3 kmh 29.79 in1008.8 mb 0.00 in0.0 mm 0.00 in0.0 mm 0.00 in0.0 mm
09:50 AM 31.2°F-0.4°C 26.9°F-2.8°C 84% 13.6 mph NE21.9 kmh NE 28.0 mph45.1 kmh 29.79 in1008.8 mb 0.00 in0.0 mm 0.00 in0.0 mm 0.00 in0.0 mm
09:55 AM 31.4°F-0.3°C 27.1°F-2.7°C 84% 13.5 mph NE21.7 kmh NE 28.0 mph45.1 kmh 29.79 in1008.8 mb 0.00 in0.0 mm 0.00 in0.0 mm 0.00 in0.0 mm
10:00 AM 31.5°F-0.3°C 26.9°F-2.8°C 83% 14.5 mph NE23.3 kmh NE 30.0 mph48.3 kmh 29.79 in1008.8 mb 0.00 in0.0 mm 0.00 in0.0 mm 0.00 in0.0 mm
10:05 AM 31.5°F-0.3°C 26.9°F-2.8°C 83% 15.3 mph NE24.6 kmh NE 30.0 mph48.3 kmh 29.79 in1008.8 mb 0.00 in0.0 mm 0.00 in0.0 mm 0.00 in0.0 mm
10:10 AM 31.6°F-0.2°C 27.0°F-2.8°C 83% 15.2 mph NE24.5 kmh NE 22.0 mph35.4 kmh 29.79 in1008.8 mb 0.00 in0.0 mm 0.00 in0.0 mm 0.00 in0.0 mm
10:15 AM 31.6°F-0.2°C 27.0°F-2.8°C 83% 14.6 mph NE23.5 kmh NE 26.0 mph41.8 kmh 29.78 in1008.5 mb 0.00 in0.0 mm 0.00 in0.0 mm 0.00 in0.0 mm
10:20 AM 31.6°F-0.2°C 27.0°F-2.8°C 83% 14.3 mph NE23.0 kmh NE 26.0 mph41.8 kmh 29.78 in1008.5 mb 0.00 in0.0 mm 0.00 in0.0 mm 0.00 in0.0 mm
10:25 AM 31.7°F-0.2°C 27.1°F-2.7°C 83% 14.6 mph NE23.5 kmh NE 26.0 mph41.8 kmh 29.78 in1008.5 mb 0.00 in0.0 mm 0.00 in0.0 mm 0.00 in0.0 mm
10:30 AM 31.7°F-0.2°C 27.1°F-2.7°C 83% 15.5 mph NE24.9 kmh NE 28.0 mph45.1 kmh 29.78 in1008.5 mb 0.00 in0.0 mm 0.00 in0.0 mm 0.00 in0.0 mm
10:35 AM 31.8°F-0.1°C 27.2°F-2.7°C 83% 16.6 mph NE26.7 kmh NE 28.0 mph45.1 kmh 29.78 in1008.5 mb 0.00 in0.0 mm 0.00 in0.0 mm 0.00 in0.0 mm
10:40 AM 31.8°F-0.1°C 27.2°F-2.7°C 83% 17.8 mph NE28.6 kmh NE 33.0 mph53.1 kmh 29.78 in1008.5 mb 0.00 in0.0 mm 0.00 in0.0 mm 0.00 in0.0 mm
10:45 AM 31.9°F-0.1°C 27.3°F-2.6°C 83% 18.1 mph NE29.1 kmh NE 33.0 mph53.1 kmh 29.78 in1008.5 mb 0.00 in0.0 mm 0.00 in0.0 mm 0.00 in0.0 mm
10:50 AM 31.7°F-0.2°C 27.1°F-2.7°C 83% 16.9 mph NE27.2 kmh NE 27.0 mph43.5 kmh 29.77 in1008.1 mb 0.00 in0.0 mm 0.00 in0.0 mm 0.00 in0.0 mm
10:55 AM 31.7°F-0.2°C 27.4°F-2.6°C 84% 15.4 mph NE24.8 kmh NE 25.0 mph40.2 kmh 29.77 in1008.1 mb 0.00 in0.0 mm 0.00 in0.0 mm 0.00 in0.0 mm
11:00 AM 31.7°F-0.2°C 27.4°F-2.6°C 84% 14.6 mph NE23.5 kmh NE 33.0 mph53.1 kmh 29.77 in1008.1 mb 0.00 in0.0 mm 0.00 in0.0 mm 0.00 in0.0 mm
11:05 AM 31.7°F-0.2°C 27.1°F-2.7°C 83% 14.8 mph NE23.8 kmh NE 33.0 mph53.1 kmh 29.77 in1008.1 mb 0.00 in0.0 mm 0.00 in0.0 mm 0.00 in0.0 mm
11:10 AM 31.6°F-0.2°C 27.3°F-2.6°C 84% 15.4 mph NE24.8 kmh NE 26.0 mph41.8 kmh 29.77 in1008.1 mb 0.00 in0.0 mm 0.00 in0.0 mm 0.00 in0.0 mm
11:15 AM 31.6°F-0.2°C 27.3°F-2.6°C 84% 15.4 mph NE24.8 kmh NE 26.0 mph41.8 kmh 29.77 in1008.1 mb 0.00 in0.0 mm 0.00 in0.0 mm 0.00 in0.0 mm
11:20 AM 31.4°F-0.3°C 27.1°F-2.7°C 84% 15.0 mph NE24.1 kmh NE 26.0 mph41.8 kmh 29.76 in1007.8 mb 0.00 in0.0 mm 0.00 in0.0 mm 0.00 in0.0 mm
11:25 AM 31.4°F-0.3°C 27.4°F-2.6°C 85% 15.0 mph NE24.1 kmh NE 26.0 mph41.8 kmh 29.76 in1007.8 mb 0.00 in0.0 mm 0.00 in0.0 mm 0.00 in0.0 mm
11:30 AM 31.3°F-0.4°C 27.3°F-2.6°C 85% 15.1 mph NE24.3 kmh NE 33.0 mph53.1 kmh 29.76 in1007.8 mb 0.00 in0.0 mm 0.00 in0.0 mm 0.00 in0.0 mm
11:35 AM 31.2°F-0.4°C 27.5°F-2.5°C 86% 16.1 mph NE25.9 kmh NE 33.0 mph53.1 kmh 29.76 in1007.8 mb 0.00 in0.0 mm 0.00 in0.0 mm 0.00 in0.0 mm
11:40 AM 31.1°F-0.5°C 27.4°F-2.6°C 86% 16.5 mph NE26.6 kmh NE 27.0 mph43.5 kmh 29.76 in1007.8 mb 0.00 in0.0 mm 0.00 in0.0 mm 0.00 in0.0 mm
11:45 AM 31.1°F-0.5°C 27.7°F-2.4°C 87% 16.2 mph NE26.1 kmh NE 28.0 mph45.1 kmh 29.76 in1007.8 mb 0.00 in0.0 mm 0.00 in0.0 mm 0.00 in0.0 mm
11:50 AM 31.1°F-0.5°C 27.7°F-2.4°C 87% 17.3 mph NE27.8 kmh NE 32.0 mph51.5 kmh 29.75 in1007.5 mb 0.00 in0.0 mm 0.00 in0.0 mm 0.00 in0.0 mm
11:55 AM 31.0°F-0.6°C 27.6°F-2.4°C 87% 18.7 mph NE30.1 kmh NE 32.0 mph51.5 kmh 29.75 in1007.5 mb 0.00 in0.0 mm 0.00 in0.0 mm 0.00 in0.0 mm
12:00 PM 31.0°F-0.6°C 27.6°F-2.4°C 87% 18.8 mph NE30.3 kmh NE 31.0 mph49.9 kmh 29.75 in1007.5 mb 0.00 in0.0 mm 0.00 in0.0 mm 0.00 in0.0 mm
12:05 PM 31.1°F-0.5°C 27.4°F-2.6°C 86% 18.1 mph NE29.1 kmh NE 32.0 mph51.5 kmh 29.75 in1007.5 mb 0.00 in0.0 mm 0.00 in0.0 mm 0.00 in0.0 mm
12:10 PM 31.2°F-0.4°C 27.2°F-2.7°C 85% 17.5 mph NE28.2 kmh NE 32.0 mph51.5 kmh 29.74 in1007.1 mb 0.00 in0.0 mm 0.00 in0.0 mm 0.00 in0.0 mm
12:15 PM 31.3°F-0.4°C 27.3°F-2.6°C 85% 17.0 mph NE27.4 kmh NE 31.0 mph49.9 kmh 29.75 in1007.5 mb 0.00 in0.0 mm 0.00 in0.0 mm 0.00 in0.0 mm
12:20 PM 31.2°F-0.4°C 27.5°F-2.5°C 86% 16.5 mph NE26.6 kmh NE 27.0 mph43.5 kmh 29.74 in1007.1 mb 0.00 in0.0 mm 0.00 in0.0 mm 0.00 in0.0 mm
12:25 PM 31.1°F-0.5°C 27.4°F-2.6°C 86% 15.8 mph NE25.4 kmh NE 29.0 mph46.7 kmh 29.74 in1007.1 mb 0.00 in0.0 mm 0.00 in0.0 mm 0.00 in0.0 mm
12:30 PM 30.9°F-0.6°C 27.5°F-2.5°C 87% 15.5 mph NE24.9 kmh NE 29.0 mph46.7 kmh 29.74 in1007.1 mb 0.00 in0.0 mm 0.00 in0.0 mm 0.00 in0.0 mm
12:35 PM 30.8°F-0.7°C 27.4°F-2.6°C 87% 15.5 mph NE24.9 kmh NE 32.0 mph51.5 kmh 29.74 in1007.1 mb 0.00 in0.0 mm 0.00 in0.0 mm 0.00 in0.0 mm
12:40 PM 30.6°F-0.8°C 27.5°F-2.5°C 88% 15.6 mph NE25.1 kmh NE 32.0 mph51.5 kmh 29.74 in1007.1 mb 0.00 in0.0 mm 0.00 in0.0 mm 0.00 in0.0 mm
12:45 PM 30.5°F-0.8°C 27.4°F-2.6°C 88% 15.9 mph NE25.6 kmh NE 27.0 mph43.5 kmh 29.73 in1006.8 mb 0.00 in0.0 mm 0.00 in0.0 mm 0.00 in0.0 mm
12:50 PM 30.6°F-0.8°C 27.5°F-2.5°C 88% 16.0 mph NE25.7 kmh NE 31.0 mph49.9 kmh 29.73 in1006.8 mb 0.00 in0.0 mm 0.00 in0.0 mm 0.00 in0.0 mm
12:55 PM 30.6°F-0.8°C 27.5°F-2.5°C 88% 16.3 mph NE26.2 kmh NE 31.0 mph49.9 kmh 29.73 in1006.8 mb 0.00 in0.0 mm 0.00 in0.0 mm 0.00 in0.0 mm
01:00 PM 30.7°F-0.7°C 27.6°F-2.4°C 88% 16.2 mph NE26.1 kmh NE 27.0 mph43.5 kmh 29.74 in1007.1 mb 0.00 in0.0 mm 0.00 in0.0 mm 0.00 in0.0 mm
01:05 PM 30.7°F-0.7°C 27.3°F-2.6°C 87% 15.5 mph NE24.9 kmh NE 27.0 mph43.5 kmh 29.73 in1006.8 mb 0.00 in0.0 mm 0.00 in0.0 mm 0.00 in0.0 mm
01:10 PM 30.8°F-0.7°C 27.4°F-2.6°C 87% 15.0 mph NE24.1 kmh NE 24.0 mph38.6 kmh 29.73 in1006.8 mb 0.00 in0.0 mm 0.00 in0.0 mm 0.00 in0.0 mm
01:15 PM 30.9°F-0.6°C 27.2°F-2.7°C 86% 14.7 mph NE23.7 kmh NE 25.0 mph40.2 kmh 29.72 in1006.4 mb 0.00 in0.0 mm 0.00 in0.0 mm 0.00 in0.0 mm
01:20 PM 31.1°F-0.5°C 27.1°F-2.7°C 85% 14.8 mph NE23.8 kmh NE 28.0 mph45.1 kmh 29.73 in1006.8 mb 0.00 in0.0 mm 0.00 in0.0 mm 0.00 in0.0 mm
01:25 PM 31.2°F-0.4°C 26.9°F-2.8°C 84% 15.6 mph NE25.1 kmh NE 28.0 mph45.1 kmh 29.72 in1006.4 mb 0.00 in0.0 mm 0.00 in0.0 mm 0.00 in0.0 mm
01:30 PM 31.4°F-0.3°C 27.1°F-2.7°C 84% 15.9 mph NE25.6 kmh NE 26.0 mph41.8 kmh 29.71 in1006.1 mb 0.00 in0.0 mm 0.00 in0.0 mm 0.00 in0.0 mm
01:35 PM 31.6°F-0.2°C 27.0°F-2.8°C 83% 15.9 mph NE25.6 kmh NE 30.0 mph48.3 kmh 29.70 in1005.8 mb 0.00 in0.0 mm 0.00 in0.0 mm 0.00 in0.0 mm
01:40 PM 31.6°F-0.2°C 27.0°F-2.8°C 83% 15.9 mph NE25.6 kmh NE 30.0 mph48.3 kmh 29.70 in1005.8 mb 0.00 in0.0 mm 0.00 in0.0 mm 0.00 in0.0 mm
01:45 PM 31.6°F-0.2°C 27.0°F-2.8°C 83% 15.4 mph NE24.8 kmh NE 25.0 mph40.2 kmh 29.70 in1005.8 mb 0.00 in0.0 mm 0.00 in0.0 mm 0.00 in0.0 mm
01:50 PM 31.5°F-0.3°C 27.2°F-2.7°C 84% 15.0 mph NE24.1 kmh NE 27.0 mph43.5 kmh 29.70 in1005.8 mb 0.00 in0.0 mm 0.00 in0.0 mm 0.00 in0.0 mm
01:55 PM 31.6°F-0.2°C 27.3°F-2.6°C 84% 15.0 mph NE24.1 kmh NE 28.0 mph45.1 kmh 29.70 in1005.8 mb 0.00 in0.0 mm 0.00 in0.0 mm 0.00 in0.0 mm
02:00 PM 31.6°F-0.2°C 27.3°F-2.6°C 84% 14.6 mph NE23.5 kmh NE 28.0 mph45.1 kmh 29.69 in1005.4 mb 0.00 in0.0 mm 0.00 in0.0 mm 0.00 in0.0 mm
02:05 PM 31.5°F-0.3°C 27.5°F-2.5°C 85% 14.3 mph NE23.0 kmh NE 26.0 mph41.8 kmh 29.70 in1005.8 mb 0.00 in0.0 mm 0.00 in0.0 mm 0.00 in0.0 mm
02:10 PM 31.3°F-0.4°C 27.6°F-2.4°C 86% 14.1 mph NE22.7 kmh NE 23.0 mph37.0 kmh 29.69 in1005.4 mb 0.00 in0.0 mm 0.00 in0.0 mm 0.00 in0.0 mm
02:15 PM 31.2°F-0.4°C 27.8°F-2.3°C 87% 13.4 mph NE21.6 kmh NE 24.0 mph38.6 kmh 29.69 in1005.4 mb 0.00 in0.0 mm 0.00 in0.0 mm 0.00 in0.0 mm
02:20 PM 31.0°F-0.6°C 27.9°F-2.3°C 88% 13.4 mph NE21.6 kmh NE 24.0 mph38.6 kmh 29.68 in1005.1 mb 0.00 in0.0 mm 0.00 in0.0 mm 0.00 in0.0 mm
02:25 PM 31.0°F-0.6°C 28.1°F-2.2°C 89% 13.9 mph NE22.4 kmh NE 24.0 mph38.6 kmh 29.68 in1005.1 mb 0.00 in0.0 mm 0.00 in0.0 mm 0.00 in0.0 mm
02:30 PM 31.0°F-0.6°C 28.1°F-2.2°C 89% 14.2 mph NE22.9 kmh NE 29.0 mph46.7 kmh 29.68 in1005.1 mb 0.00 in0.0 mm 0.00 in0.0 mm 0.00 in0.0 mm
02:35 PM 31.0°F-0.6°C 27.9°F-2.3°C 88% 15.0 mph NE24.1 kmh NE 29.0 mph46.7 kmh 29.68 in1005.1 mb 0.00 in0.0 mm 0.00 in0.0 mm 0.00 in0.0 mm
02:40 PM 31.4°F-0.3°C 28.0°F-2.2°C 87% 15.8 mph NE25.4 kmh NE 27.0 mph43.5 kmh 29.67 in1004.7 mb 0.00 in0.0 mm 0.00 in0.0 mm 0.00 in0.0 mm
02:45 PM 31.7°F-0.2°C 28.0°F-2.2°C 86% 16.5 mph NE26.6 kmh NE 26.0 mph41.8 kmh 29.67 in1004.7 mb 0.00 in0.0 mm 0.00 in0.0 mm 0.00 in0.0 mm
02:50 PM 32.0°F0.0°C 28.0°F-2.2°C 85% 16.7 mph NE26.9 kmh NE 29.0 mph46.7 kmh 29.67 in1004.7 mb 0.00 in0.0 mm 0.00 in0.0 mm 0.00 in0.0 mm
02:55 PM 32.1°F0.1°C 27.8°F-2.3°C 84% 15.7 mph NE25.3 kmh NE 29.0 mph46.7 kmh 29.66 in1004.4 mb 0.00 in0.0 mm 0.00 in0.0 mm 0.00 in0.0 mm
03:00 PM 32.3°F0.2°C 27.7°F-2.4°C 83% 14.5 mph NE23.3 kmh NE 25.0 mph40.2 kmh 29.67 in1004.7 mb 0.00 in0.0 mm 0.00 in0.0 mm 0.00 in0.0 mm
03:05 PM 32.4°F0.2°C 27.5°F-2.5°C 82% 13.6 mph NE21.9 kmh NE 22.0 mph35.4 kmh 29.66 in1004.4 mb 0.00 in0.0 mm 0.00 in0.0 mm 0.00 in0.0 mm
03:10 PM 32.5°F0.3°C 27.6°F-2.4°C 82% 13.1 mph NE21.1 kmh NE 22.0 mph35.4 kmh 29.66 in1004.4 mb 0.00 in0.0 mm 0.00 in0.0 mm 0.00 in0.0 mm
03:15 PM 32.5°F0.3°C 27.3°F-2.6°C 81% 13.0 mph NE20.9 kmh NE 23.0 mph37.0 kmh 29.66 in1004.4 mb 0.00 in0.0 mm 0.00 in0.0 mm 0.00 in0.0 mm
03:20 PM 32.5°F0.3°C 27.0°F-2.8°C 80% 13.0 mph NE20.9 kmh NE 23.0 mph37.0 kmh 29.66 in1004.4 mb 0.00 in0.0 mm 0.00 in0.0 mm 0.00 in0.0 mm
03:25 PM 32.6°F0.3°C 26.8°F-2.9°C 79% 12.6 mph NE20.3 kmh NE 23.0 mph37.0 kmh 29.65 in1004.1 mb 0.00 in0.0 mm 0.00 in0.0 mm 0.00 in0.0 mm
03:30 PM 32.6°F0.3°C 26.8°F-2.9°C 79% 12.1 mph NE19.5 kmh NE 23.0 mph37.0 kmh 29.65 in1004.1 mb 0.00 in0.0 mm 0.00 in0.0 mm 0.00 in0.0 mm
03:35 PM 32.7°F0.4°C 26.6°F-3.0°C 78% 12.0 mph NE19.3 kmh NE 23.0 mph37.0 kmh 29.65 in1004.1 mb 0.00 in0.0 mm 0.00 in0.0 mm 0.00 in0.0 mm
03:40 PM 32.7°F0.4°C 26.3°F-3.2°C 77% 12.4 mph NE20.0 kmh NE 23.0 mph37.0 kmh 29.64 in1003.7 mb 0.00 in0.0 mm 0.00 in0.0 mm 0.00 in0.0 mm
03:45 PM 32.7°F0.4°C 26.3°F-3.2°C 77% 12.9 mph NE20.8 kmh NE 22.0 mph35.4 kmh 29.64 in1003.7 mb 0.00 in0.0 mm 0.00 in0.0 mm 0.00 in0.0 mm
03:50 PM 32.8°F0.4°C 26.4°F-3.1°C 77% 13.0 mph NE20.9 kmh NE 23.0 mph37.0 kmh 29.64 in1003.7 mb 0.00 in0.0 mm 0.00 in0.0 mm 0.00 in0.0 mm
03:55 PM 32.9°F0.5°C 26.5°F-3.1°C 77% 12.5 mph NE20.1 kmh NE 23.0 mph37.0 kmh 29.64 in1003.7 mb 0.00 in0.0 mm 0.00 in0.0 mm 0.00 in0.0 mm
04:00 PM 33.0°F0.6°C 26.3°F-3.2°C 76% 11.8 mph NE19.0 kmh NE 24.0 mph38.6 kmh 29.64 in1003.7 mb 0.00 in0.0 mm 0.00 in0.0 mm 0.00 in0.0 mm
04:05 PM 32.9°F0.5°C 26.8°F-2.9°C 78% 11.6 mph NE18.7 kmh NE 24.0 mph38.6 kmh 29.64 in1003.7 mb 0.00 in0.0 mm 0.00 in0.0 mm 0.00 in0.0 mm
04:10 PM 32.9°F0.5°C 26.8°F-2.9°C 78% 11.2 mph NE18.0 kmh NE 20.0 mph32.2 kmh 29.63 in1003.4 mb 0.00 in0.0 mm 0.00 in0.0 mm 0.00 in0.0 mm
04:15 PM 32.9°F0.5°C 26.8°F-2.9°C 78% 10.9 mph NE17.5 kmh NE 22.0 mph35.4 kmh 29.63 in1003.4 mb 0.00 in0.0 mm 0.00 in0.0 mm 0.00 in0.0 mm
04:20 PM 33.0°F0.6°C 26.9°F-2.8°C 78% 11.4 mph NE18.3 kmh NE 22.0 mph35.4 kmh 29.63 in1003.4 mb 0.00 in0.0 mm 0.00 in0.0 mm 0.00 in0.0 mm
04:25 PM 32.9°F0.5°C 27.1°F-2.7°C 79% 11.7 mph NE18.8 kmh NE 20.0 mph32.2 kmh 29.63 in1003.4 mb 0.00 in0.0 mm 0.00 in0.0 mm 0.00 in0.0 mm
04:30 PM 32.9°F0.5°C 27.1°F-2.7°C 79% 11.3 mph NE18.2 kmh NE 17.0 mph27.4 kmh 29.63 in1003.4 mb 0.00 in0.0 mm 0.00 in0.0 mm 0.00 in0.0 mm
04:35 PM 33.0°F0.6°C 27.2°F-2.7°C 79% 10.7 mph NE17.2 kmh NE 18.0 mph29.0 kmh 29.62 in1003.0 mb 0.00 in0.0 mm 0.00 in0.0 mm 0.00 in0.0 mm
04:40 PM 33.0°F0.6°C 27.2°F-2.7°C 79% 10.2 mph NE16.4 kmh NE 18.0 mph29.0 kmh 29.62 in1003.0 mb 0.00 in0.0 mm 0.00 in0.0 mm 0.00 in0.0 mm
04:45 PM 33.0°F0.6°C 27.2°F-2.7°C 79% 10.3 mph NE16.6 kmh NE 18.0 mph29.0 kmh 29.62 in1003.0 mb 0.00 in0.0 mm 0.00 in0.0 mm 0.00 in0.0 mm
04:50 PM 33.1°F0.6°C 27.3°F-2.6°C 79% 10.3 mph NE16.6 kmh NE 18.0 mph29.0 kmh 29.62 in1003.0 mb 0.00 in0.0 mm 0.00 in0.0 mm 0.00 in0.0 mm
04:55 PM 33.3°F0.7°C 27.5°F-2.5°C 79% 10.0 mph NE16.1 kmh NE 17.0 mph27.4 kmh 29.61 in1002.7 mb 0.00 in0.0 mm 0.00 in0.0 mm 0.00 in0.0 mm
05:00 PM 33.2°F0.7°C 27.4°F-2.6°C 79% 9.9 mph NE15.9 kmh NE 17.0 mph27.4 kmh 29.62 in1003.0 mb 0.00 in0.0 mm 0.00 in0.0 mm 0.00 in0.0 mm
05:05 PM 33.3°F0.7°C 27.5°F-2.5°C 79% 9.5 mph NE15.3 kmh NE 16.0 mph25.7 kmh 29.62 in1003.0 mb 0.00 in0.0 mm 0.00 in0.0 mm 0.00 in0.0 mm
05:10 PM 33.2°F0.7°C 27.4°F-2.6°C 79% 9.1 mph NE14.6 kmh NE 15.0 mph24.1 kmh 29.61 in1002.7 mb 0.00 in0.0 mm 0.00 in0.0 mm 0.00 in0.0 mm
05:15 PM 33.1°F0.6°C 27.6°F-2.4°C 80% 9.0 mph NE14.5 kmh NE 15.0 mph24.1 kmh 29.61 in1002.7 mb 0.00 in0.0 mm 0.00 in0.0 mm 0.00 in0.0 mm
05:20 PM 33.0°F0.6°C 27.5°F-2.5°C 80% 8.5 mph NE13.7 kmh NE 15.0 mph24.1 kmh 29.61 in1002.7 mb 0.00 in0.0 mm 0.00 in0.0 mm 0.00 in0.0 mm
05:25 PM 32.9°F0.5°C 27.4°F-2.6°C 80% 8.0 mph NE12.9 kmh NE 15.0 mph24.1 kmh 29.61 in1002.7 mb 0.00 in0.0 mm 0.00 in0.0 mm 0.00 in0.0 mm
05:30 PM 32.9°F0.5°C 27.7°F-2.4°C 81% 8.0 mph NE12.9 kmh NE 15.0 mph24.1 kmh 29.62 in1003.0 mb 0.00 in0.0 mm 0.00 in0.0 mm 0.00 in0.0 mm
05:35 PM 32.8°F0.4°C 27.6°F-2.4°C 81% 8.0 mph NE12.9 kmh NE 14.0 mph22.5 kmh 29.61 in1002.7 mb 0.00 in0.0 mm 0.00 in0.0 mm 0.00 in0.0 mm
05:40 PM 32.8°F0.4°C 27.9°F-2.3°C 82% 7.7 mph NE12.4 kmh NE 14.0 mph22.5 kmh 29.61 in1002.7 mb 0.00 in0.0 mm 0.00 in0.0 mm 0.00 in0.0 mm
05:45 PM 32.7°F0.4°C 27.8°F-2.3°C 82% 7.2 mph NE11.6 kmh NE 14.0 mph22.5 kmh 29.61 in1002.7 mb 0.00 in0.0 mm 0.00 in0.0 mm 0.00 in0.0 mm
05:50 PM 32.7°F0.4°C 28.1°F-2.2°C 83% 7.0 mph NE11.3 kmh NE 14.0 mph22.5 kmh 29.61 in1002.7 mb 0.00 in0.0 mm 0.00 in0.0 mm 0.00 in0.0 mm
05:55 PM 32.7°F0.4°C 28.1°F-2.2°C 83% 7.0 mph NE11.3 kmh NE 14.0 mph22.5 kmh 29.61 in1002.7 mb 0.00 in0.0 mm 0.00 in0.0 mm 0.00 in0.0 mm
06:00 PM 32.8°F0.4°C 28.2°F-2.1°C 83% 6.7 mph NE10.8 kmh NE 11.0 mph17.7 kmh 29.61 in1002.7 mb 0.00 in0.0 mm 0.00 in0.0 mm 0.00 in0.0 mm
06:05 PM 32.8°F0.4°C 28.2°F-2.1°C 83% 6.0 mph NE9.7 kmh NE 10.0 mph16.1 kmh 29.60 in1002.4 mb 0.00 in0.0 mm 0.00 in0.0 mm 0.00 in0.0 mm
06:10 PM 32.9°F0.5°C 28.3°F-2.1°C 83% 5.8 mph NE9.3 kmh NE 11.0 mph17.7 kmh 29.60 in1002.4 mb 0.00 in0.0 mm 0.00 in0.0 mm 0.00 in0.0 mm
06:15 PM 32.9°F0.5°C 28.6°F-1.9°C 84% 6.0 mph NE9.7 kmh NE 11.0 mph17.7 kmh 29.60 in1002.4 mb 0.00 in0.0 mm 0.00 in0.0 mm 0.00 in0.0 mm
06:20 PM 33.0°F0.6°C 28.7°F-1.8°C 84% 5.7 mph NE9.2 kmh NE 11.0 mph17.7 kmh 29.60 in1002.4 mb 0.00 in0.0 mm 0.00 in0.0 mm 0.00 in0.0 mm
06:25 PM 33.0°F0.6°C 28.7°F-1.8°C 84% 5.2 mph NE8.4 kmh NE 11.0 mph17.7 kmh 29.60 in1002.4 mb 0.00 in0.0 mm 0.00 in0.0 mm 0.00 in0.0 mm
06:30 PM 33.0°F0.6°C 28.7°F-1.8°C 84% 5.0 mph NE8.0 kmh NE 11.0 mph17.7 kmh 29.60 in1002.4 mb 0.00 in0.0 mm 0.00 in0.0 mm 0.00 in0.0 mm
06:35 PM 33.1°F0.6°C 28.8°F-1.8°C 84% 5.0 mph NE8.0 kmh NE 9.0 mph14.5 kmh 29.60 in1002.4 mb 0.00 in0.0 mm 0.00 in0.0 mm 0.00 in0.0 mm
06:40 PM 33.2°F0.7°C 28.9°F-1.7°C 84% 5.3 mph NE8.5 kmh NE 10.0 mph16.1 kmh 29.60 in1002.4 mb 0.00 in0.0 mm 0.00 in0.0 mm 0.00 in0.0 mm
06:45 PM 33.2°F0.7°C 28.9°F-1.7°C 84% 5.7 mph NE9.2 kmh NE 10.0 mph16.1 kmh 29.60 in1002.4 mb 0.00 in0.0 mm 0.00 in0.0 mm 0.00 in0.0 mm
06:50 PM 33.2°F0.7°C 28.9°F-1.7°C 84% 5.4 mph NE8.7 kmh NE 10.0 mph16.1 kmh 29.60 in1002.4 mb 0.00 in0.0 mm 0.00 in0.0 mm 0.00 in0.0 mm
06:55 PM 33.3°F0.7°C 28.7°F-1.8°C 83% 5.5 mph NE8.9 kmh NE 10.0 mph16.1 kmh 29.60 in1002.4 mb 0.00 in0.0 mm 0.00 in0.0 mm 0.00 in0.0 mm
07:00 PM 33.3°F0.7°C 28.7°F-1.8°C 83% 5.8 mph NE9.3 kmh NE 11.0 mph17.7 kmh 29.59 in1002.0 mb 0.00 in0.0 mm 0.00 in0.0 mm 0.00 in0.0 mm
07:05 PM 33.3°F0.7°C 28.7°F-1.8°C 83% 5.8 mph NE9.3 kmh NE 11.0 mph17.7 kmh 29.59 in1002.0 mb 0.00 in0.0 mm 0.00 in0.0 mm 0.00 in0.0 mm
07:10 PM 33.5°F0.8°C 28.9°F-1.7°C 83% 6.0 mph NE9.7 kmh NE 9.0 mph14.5 kmh 29.59 in1002.0 mb 0.00 in0.0 mm 0.00 in0.0 mm 0.00 in0.0 mm
07:15 PM 33.5°F0.8°C 28.9°F-1.7°C 83% 5.8 mph NE9.3 kmh NE 9.0 mph14.5 kmh 29.59 in1002.0 mb 0.00 in0.0 mm 0.00 in0.0 mm 0.00 in0.0 mm
07:20 PM 33.5°F0.8°C 29.2°F-1.6°C 84% 5.5 mph NE8.9 kmh NE 9.0 mph14.5 kmh 29.59 in1002.0 mb 0.00 in0.0 mm 0.00 in0.0 mm 0.00 in0.0 mm
07:25 PM 33.5°F0.8°C 28.9°F-1.7°C 83% 5.5 mph NE8.9 kmh NE 9.0 mph14.5 kmh 29.59 in1002.0 mb 0.00 in0.0 mm 0.00 in0.0 mm 0.00 in0.0 mm
07:30 PM 33.6°F0.9°C 29.3°F-1.5°C 84% 5.3 mph NE8.5 kmh NE 9.0 mph14.5 kmh 29.59 in1002.0 mb 0.00 in0.0 mm 0.00 in0.0 mm 0.00 in0.0 mm
07:35 PM 33.5°F0.8°C 29.2°F-1.6°C 84% 5.0 mph NE8.0 kmh NE 9.0 mph14.5 kmh 29.59 in1002.0 mb 0.01 in0.3 mm 0.12 in3.0 mm 0.01 in0.3 mm
07:40 PM 33.5°F0.8°C 29.2°F-1.6°C 84% 4.8 mph NE7.7 kmh NE 8.0 mph12.9 kmh 29.59 in1002.0 mb 0.01 in0.3 mm 0.00 in0.0 mm 0.01 in0.3 mm
07:45 PM 33.5°F0.8°C 29.2°F-1.6°C 84% 4.3 mph NE6.9 kmh NE 8.0 mph12.9 kmh 29.59 in1002.0 mb 0.02 in0.5 mm 0.12 in3.0 mm 0.02 in0.5 mm
07:50 PM 33.6°F0.9°C 29.6°F-1.3°C 85% 4.0 mph NE6.4 kmh NE 7.0 mph11.3 kmh 29.59 in1002.0 mb 0.02 in0.5 mm 0.00 in0.0 mm 0.02 in0.5 mm
07:55 PM 33.5°F0.8°C 29.2°F-1.6°C 84% 4.0 mph NE6.4 kmh NE 7.0 mph11.3 kmh 29.59 in1002.0 mb 0.02 in0.5 mm 0.00 in0.0 mm 0.02 in0.5 mm
08:00 PM 33.6°F0.9°C 29.6°F-1.3°C 85% 4.0 mph NE6.4 kmh NE 7.0 mph11.3 kmh 29.59 in1002.0 mb 0.02 in0.5 mm 0.00 in0.0 mm 0.02 in0.5 mm
08:05 PM 33.6°F0.9°C 29.6°F-1.3°C 85% 4.0 mph NE6.4 kmh NE 7.0 mph11.3 kmh 29.60 in1002.4 mb 0.02 in0.5 mm 0.00 in0.0 mm 0.02 in0.5 mm
08:10 PM 33.5°F0.8°C 29.5°F-1.4°C 85% 3.9 mph NE6.3 kmh NE 6.0 mph9.7 kmh 29.60 in1002.4 mb 0.03 in0.8 mm 0.12 in3.0 mm 0.03 in0.8 mm
08:15 PM 33.5°F0.8°C 29.5°F-1.4°C 85% 3.4 mph NE5.5 kmh NE 7.0 mph11.3 kmh 29.60 in1002.4 mb 0.03 in0.8 mm 0.00 in0.0 mm 0.03 in0.8 mm
08:20 PM 33.6°F0.9°C 29.6°F-1.3°C 85% 3.0 mph NE4.8 kmh NE 7.0 mph11.3 kmh 29.60 in1002.4 mb 0.03 in0.8 mm 0.00 in0.0 mm 0.03 in0.8 mm
08:25 PM 33.6°F0.9°C 29.6°F-1.3°C 85% 3.2 mph NE5.1 kmh NE 6.0 mph9.7 kmh 29.60 in1002.4 mb 0.04 in1.0 mm 0.12 in3.0 mm 0.04 in1.0 mm
08:30 PM 33.7°F0.9°C 29.7°F-1.3°C 85% 3.2 mph NE5.1 kmh NE 5.0 mph8.0 kmh 29.60 in1002.4 mb 0.04 in1.0 mm 0.00 in0.0 mm 0.04 in1.0 mm
08:35 PM 33.7°F0.9°C 29.7°F-1.3°C 85% 3.0 mph NE4.8 kmh NE 6.0 mph9.7 kmh 29.60 in1002.4 mb 0.04 in1.0 mm 0.00 in0.0 mm 0.05 in1.3 mm
08:40 PM 33.7°F0.9°C 29.7°F-1.3°C 85% 3.0 mph NE4.8 kmh NE 6.0 mph9.7 kmh 29.60 in1002.4 mb 0.04 in1.0 mm 0.00 in0.0 mm 0.05 in1.3 mm
08:45 PM 33.7°F0.9°C 29.7°F-1.3°C 85% 3.0 mph NE4.8 kmh NE 6.0 mph9.7 kmh 29.60 in1002.4 mb 0.03 in0.8 mm 0.00 in0.0 mm 0.05 in1.3 mm
08:50 PM 33.8°F1.0°C 29.8°F-1.2°C 85% 3.0 mph NE4.8 kmh NE 6.0 mph9.7 kmh 29.59 in1002.0 mb 0.03 in0.8 mm 0.00 in0.0 mm 0.05 in1.3 mm
08:55 PM 33.9°F1.1°C 29.6°F-1.3°C 84% 3.0 mph NE4.8 kmh NE 8.0 mph12.9 kmh 29.59 in1002.0 mb 0.03 in0.8 mm 0.00 in0.0 mm 0.06 in1.5 mm
09:00 PM 34.0°F1.1°C 29.7°F-1.3°C 84% 3.4 mph NE5.5 kmh NE 9.0 mph14.5 kmh 29.58 in1001.7 mb 0.03 in0.8 mm 0.00 in0.0 mm 0.06 in1.5 mm
09:05 PM 34.0°F1.1°C 29.7°F-1.3°C 84% 3.9 mph NE6.3 kmh NE 9.0 mph14.5 kmh 29.58 in1001.7 mb 0.03 in0.8 mm 0.00 in0.0 mm 0.06 in1.5 mm
09:10 PM 34.0°F1.1°C 29.7°F-1.3°C 84% 4.0 mph NE6.4 kmh NE 9.0 mph14.5 kmh 29.58 in1001.7 mb 0.02 in0.5 mm 0.00 in0.0 mm 0.06 in1.5 mm
09:15 PM 34.1°F1.2°C 29.8°F-1.2°C 84% 4.0 mph NE6.4 kmh NE 8.0 mph12.9 kmh 29.58 in1001.7 mb 0.02 in0.5 mm 0.00 in0.0 mm 0.06 in1.5 mm
09:20 PM 34.0°F1.1°C 29.7°F-1.3°C 84% 4.0 mph NE6.4 kmh NE 9.0 mph14.5 kmh 29.58 in1001.7 mb 0.02 in0.5 mm 0.00 in0.0 mm 0.06 in1.5 mm
09:25 PM 34.1°F1.2°C 29.8°F-1.2°C 84% 3.8 mph NE6.1 kmh NE 9.0 mph14.5 kmh 29.58 in1001.7 mb 0.02 in0.5 mm 0.00 in0.0 mm 0.06 in1.5 mm
09:30 PM 34.1°F1.2°C 29.8°F-1.2°C 84% 3.6 mph NE5.8 kmh NE 7.0 mph11.3 kmh 29.58 in1001.7 mb 0.02 in0.5 mm 0.00 in0.0 mm 0.06 in1.5 mm
09:35 PM 34.2°F1.2°C 29.9°F-1.2°C 84% 3.5 mph NE5.6 kmh NE 6.0 mph9.7 kmh 29.57 in1001.4 mb 0.02 in0.5 mm 0.00 in0.0 mm 0.06 in1.5 mm
09:40 PM 34.2°F1.2°C 29.9°F-1.2°C 84% 3.2 mph NE5.1 kmh NE 6.0 mph9.7 kmh 29.58 in1001.7 mb 0.02 in0.5 mm 0.00 in0.0 mm 0.06 in1.5 mm
09:45 PM 34.2°F1.2°C 29.9°F-1.2°C 84% 3.0 mph NE4.8 kmh NE 6.0 mph9.7 kmh 29.58 in1001.7 mb 0.02 in0.5 mm 0.00 in0.0 mm 0.06 in1.5 mm
09:50 PM 34.2°F1.2°C 29.9°F-1.2°C 84% 3.0 mph NE4.8 kmh NE 7.0 mph11.3 kmh 29.58 in1001.7 mb 0.02 in0.5 mm 0.00 in0.0 mm 0.07 in1.8 mm
09:55 PM 34.2°F1.2°C 29.9°F-1.2°C 84% 3.0 mph NE4.8 kmh NE 7.0 mph11.3 kmh 29.58 in1001.7 mb 0.02 in0.5 mm 0.00 in0.0 mm 0.07 in1.8 mm
10:00 PM 34.3°F1.3°C 30.0°F-1.1°C 84% 3.0 mph NE4.8 kmh NE 5.0 mph8.0 kmh 29.57 in1001.4 mb 0.02 in0.5 mm 0.00 in0.0 mm 0.07 in1.8 mm
10:05 PM 34.3°F1.3°C 29.7°F-1.3°C 83% 3.0 mph NE4.8 kmh NE 5.0 mph8.0 kmh 29.58 in1001.7 mb 0.02 in0.5 mm 0.00 in0.0 mm 0.07 in1.8 mm
10:10 PM 34.4°F1.3°C 29.8°F-1.2°C 83% 3.0 mph NE4.8 kmh NE 6.0 mph9.7 kmh 29.57 in1001.4 mb 0.02 in0.5 mm 0.00 in0.0 mm 0.07 in1.8 mm
10:15 PM 34.4°F1.3°C 29.8°F-1.2°C 83% 3.0 mph NE4.8 kmh NE 6.0 mph9.7 kmh 29.57 in1001.4 mb 0.02 in0.5 mm 0.00 in0.0 mm 0.07 in1.8 mm
10:20 PM 34.4°F1.3°C 29.8°F-1.2°C 83% 3.0 mph NE4.8 kmh NE 6.0 mph9.7 kmh 29.57 in1001.4 mb 0.02 in0.5 mm 0.00 in0.0 mm 0.07 in1.8 mm
10:25 PM 34.4°F1.3°C 30.1°F-1.1°C 84% 3.0 mph NE4.8 kmh NE 5.0 mph8.0 kmh 29.57 in1001.4 mb 0.02 in0.5 mm 0.00 in0.0 mm 0.08 in2.0 mm
10:30 PM 34.3°F1.3°C 30.0°F-1.1°C 84% 3.0 mph NE4.8 kmh NE 6.0 mph9.7 kmh 29.57 in1001.4 mb 0.02 in0.5 mm 0.00 in0.0 mm 0.09 in2.3 mm
10:35 PM 34.2°F1.2°C 30.2°F-1.0°C 85% 3.0 mph NE4.8 kmh NE 6.0 mph9.7 kmh 29.56 in1001.0 mb 0.02 in0.5 mm 0.00 in0.0 mm 0.09 in2.3 mm
10:40 PM 34.2°F1.2°C 30.2°F-1.0°C 85% 3.0 mph NE4.8 kmh NE 6.0 mph9.7 kmh 29.57 in1001.4 mb 0.02 in0.5 mm 0.00 in0.0 mm 0.09 in2.3 mm
10:45 PM 34.3°F1.3°C 30.0°F-1.1°C 84% 3.0 mph NE4.8 kmh NE 8.0 mph12.9 kmh 29.57 in1001.4 mb 0.02 in0.5 mm 0.00 in0.0 mm 0.09 in2.3 mm
10:50 PM 34.4°F1.3°C 30.1°F-1.1°C 84% 3.6 mph NE5.8 kmh NE 17.0 mph27.4 kmh 29.57 in1001.4 mb 0.02 in0.5 mm 0.00 in0.0 mm 0.09 in2.3 mm
10:55 PM 34.4°F1.3°C 30.1°F-1.1°C 84% 5.8 mph NE9.3 kmh NE 18.0 mph29.0 kmh 29.56 in1001.0 mb 0.02 in0.5 mm 0.00 in0.0 mm 0.09 in2.3 mm
11:00 PM 34.4°F1.3°C 30.1°F-1.1°C 84% 8.8 mph NE14.2 kmh NE 18.0 mph29.0 kmh 29.57 in1001.4 mb 0.02 in0.5 mm 0.00 in0.0 mm 0.09 in2.3 mm
11:05 PM 34.5°F1.4°C 30.2°F-1.0°C 84% 10.5 mph NE16.9 kmh NE 18.0 mph29.0 kmh 29.57 in1001.4 mb 0.03 in0.8 mm 0.12 in3.0 mm 0.10 in2.5 mm
11:10 PM 34.5°F1.4°C 30.2°F-1.0°C 84% 10.9 mph NE17.5 kmh NE 18.0 mph29.0 kmh 29.57 in1001.4 mb 0.03 in0.8 mm 0.00 in0.0 mm 0.10 in2.5 mm
11:15 PM 34.5°F1.4°C 30.5°F-0.8°C 85% 9.8 mph NE15.8 kmh NE 16.0 mph25.7 kmh 29.58 in1001.7 mb 0.04 in1.0 mm 0.12 in3.0 mm 0.11 in2.8 mm
11:20 PM 34.4°F1.3°C 30.6°F-0.8°C 86% 7.0 mph NE11.3 kmh NE 12.0 mph19.3 kmh 29.58 in1001.7 mb 0.04 in1.0 mm 0.00 in0.0 mm 0.11 in2.8 mm
11:25 PM 34.5°F1.4°C 30.7°F-0.7°C 86% 4.6 mph NE7.4 kmh NE 12.0 mph19.3 kmh 29.58 in1001.7 mb 0.03 in0.8 mm 0.00 in0.0 mm 0.11 in2.8 mm
11:30 PM 34.5°F1.4°C 30.7°F-0.7°C 86% 4.4 mph NE7.1 kmh NE 17.0 mph27.4 kmh 29.58 in1001.7 mb 0.03 in0.8 mm 0.00 in0.0 mm 0.12 in3.0 mm
11:35 PM 34.7°F1.5°C 30.7°F-0.7°C 85% 5.2 mph NE8.4 kmh NE 18.0 mph29.0 kmh 29.57 in1001.4 mb 0.03 in0.8 mm 0.00 in0.0 mm 0.12 in3.0 mm
11:40 PM 34.7°F1.5°C 30.7°F-0.7°C 85% 6.6 mph NE10.6 kmh NE 18.0 mph29.0 kmh 29.57 in1001.4 mb 0.03 in0.8 mm 0.00 in0.0 mm 0.12 in3.0 mm
11:45 PM 34.7°F1.5°C 30.7°F-0.7°C 85% 7.6 mph NE12.2 kmh NE 17.0 mph27.4 kmh 29.57 in1001.4 mb 0.03 in0.8 mm 0.00 in0.0 mm 0.12 in3.0 mm
11:50 PM 34.6°F1.4°C 30.8°F-0.7°C 86% 7.4 mph NE11.9 kmh NE 14.0 mph22.5 kmh 29.57 in1001.4 mb 0.03 in0.8 mm 0.00 in0.0 mm 0.13 in3.3 mm
11:55 PM 34.8°F1.6°C 31.0°F-0.6°C 86% 6.4 mph NE10.3 kmh NE 19.0 mph30.6 kmh 29.57 in1001.4 mb 0.04 in1.0 mm 0.12 in3.0 mm 0.13 in3.3 mm